Time;durP1;ratioP1;P1;durP2;ratioP2;P2;SDS_P1;SDS_P2;PMS_P1;PMS_P2;Temp;Humidity;BMP_temperature;BMP_pressure;BME280_temperature;BME280_humidity;BME280_pressure;Samples;Min_cycle;Max_cycle;Signal;HPM_P1;HPM_P2
2022/03/10 00:00:02;;;;;;;1.70;1.52;;;20.30;31.20;;;;;;5113176;28;20055;-80
2022/03/10 00:02:39;;;;;;;1.88;1.38;;;20.20;31.20;;;;;;5113262;28;20062;-80
2022/03/10 00:05:05;;;;;;;2.55;1.65;;;20.30;31.30;;;;;;5094890;28;20511;-80
2022/03/10 00:07:30;;;;;;;1.45;1.35;;;20.20;31.20;;;;;;5113007;28;20048;-80
2022/03/10 00:09:57;;;;;;;2.22;1.73;;;20.30;31.30;;;;;;5113377;28;20099;-80
2022/03/10 00:12:24;;;;;;;1.83;1.38;;;20.30;31.20;;;;;;5113373;28;20101;-80
2022/03/10 00:14:51;;;;;;;1.42;1.33;;;20.30;31.20;;;;;;5112865;28;20125;-80
2022/03/10 00:17:18;;;;;;;2.60;1.80;;;20.30;31.20;;;;;;5113009;28;20108;-80
2022/03/10 00:19:44;;;;;;;2.08;1.35;;;20.30;31.20;;;;;;5111728;28;20043;-80
2022/03/10 00:22:11;;;;;;;1.80;1.27;;;20.30;31.30;;;;;;5094499;28;20094;-80
2022/03/10 00:24:38;;;;;;;2.38;1.70;;;20.30;31.30;;;;;;5113000;28;20146;-80
2022/03/10 00:27:04;;;;;;;1.90;1.70;;;20.30;31.30;;;;;;5112736;28;20051;-80
2022/03/10 00:29:30;;;;;;;2.45;1.67;;;20.30;31.20;;;;;;5092386;28;20059;-80
2022/03/10 00:31:55;;;;;;;4.05;1.90;;;20.20;31.20;;;;;;5112737;28;20522;-80
2022/03/10 00:34:21;;;;;;;3.13;1.50;;;20.30;31.20;;;;;;5112726;28;20044;-80
2022/03/10 00:36:46;;;;;;;2.55;1.67;;;20.30;31.20;;;;;;5111418;28;20062;-80
2022/03/10 00:39:12;;;;;;;1.75;1.50;;;20.30;31.30;;;;;;5093721;28;20059;-80
2022/03/10 00:41:37;;;;;;;1.98;1.70;;;20.20;31.10;;;;;;5112795;28;20407;-80
2022/03/10 00:44:03;;;;;;;2.10;1.70;;;20.30;31.20;;;;;;5112483;28;20492;-80
2022/03/10 00:46:30;;;;;;;2.13;1.48;;;20.30;31.20;;;;;;5112655;28;20104;-80
2022/03/10 00:48:55;;;;;;;1.70;1.60;;;20.30;31.20;;;;;;5112430;28;20056;-80
2022/03/10 00:51:21;;;;;;;2.30;1.80;;;20.30;31.20;;;;;;5112642;28;20046;-80
2022/03/10 00:53:46;;;;;;;1.92;1.40;;;20.30;31.20;;;;;;5112722;28;20078;-80
2022/03/10 00:56:12;;;;;;;2.15;1.88;;;20.30;31.20;;;;;;5112764;28;20051;-80
2022/03/10 00:58:37;;;;;;;1.67;1.55;;;20.30;31.10;;;;;;5094556;28;20147;-80
2022/03/10 01:01:03;;;;;;;2.30;1.73;;;20.30;31.10;;;;;;5112313;28;20043;-80
2022/03/10 01:03:28;;;;;;;1.85;1.60;;;20.30;31.30;;;;;;5112634;28;20055;-80
2022/03/10 01:05:54;;;;;;;2.83;1.70;;;20.30;31.10;;;;;;5112453;28;20055;-80
2022/03/10 01:08:19;;;;;;;2.28;1.85;;;20.30;31.10;;;;;;5112205;28;20076;-80
2022/03/10 01:10:45;;;;;;;2.15;1.80;;;20.30;31.10;;;;;;5111049;28;20054;-80
2022/03/10 01:13:12;;;;;;;2.47;1.90;;;20.30;31.10;;;;;;5111060;28;20082;-80
2022/03/10 01:15:38;;;;;;;4.03;1.50;;;20.30;31.10;;;;;;5094252;28;20074;-80
2022/03/10 01:18:04;;;;;;;1.90;1.48;;;20.30;31.10;;;;;;5093859;28;20056;-80
2022/03/10 01:20:29;;;;;;;2.28;1.70;;;20.30;31.10;;;;;;5111989;28;20059;-80
2022/03/10 01:22:55;;;;;;;2.00;1.50;;;20.30;31.10;;;;;;5112081;28;20080;-80
2022/03/10 01:25:21;;;;;;;2.85;1.73;;;20.30;31.10;;;;;;5112351;28;20072;-80
2022/03/10 01:27:47;;;;;;;1.92;1.50;;;20.30;31.10;;;;;;5112468;28;20130;-80
2022/03/10 01:30:13;;;;;;;2.22;1.80;;;20.30;31.10;;;;;;5097268;28;20052;-80
2022/03/10 01:32:39;;;;;;;2.10;1.90;;;20.30;31.10;;;;;;5115888;28;20055;-80
2022/03/10 01:35:06;;;;;;;1.80;1.60;;;20.30;31.10;;;;;;5097167;28;20518;-80
2022/03/10 01:37:37;;;;;;;1.70;1.48;;;20.30;31.00;;;;;;5096994;28;20123;-80
2022/03/10 01:40:07;;;;;;;1.98;1.70;;;20.30;31.00;;;;;;5097537;28;20052;-80
2022/03/10 01:42:33;;;;;;;2.38;1.70;;;20.30;31.00;;;;;;5115771;28;20047;-80
2022/03/10 01:44:59;;;;;;;1.88;1.42;;;20.30;31.60;;;;;;5115325;28;20044;-80
2022/03/10 01:47:26;;;;;;;1.95;1.50;;;20.30;31.00;;;;;;5115475;28;20097;-80
2022/03/10 01:49:53;;;;;;;1.50;1.40;;;20.30;31.00;;;;;;5115238;28;20488;-80
2022/03/10 01:52:21;;;;;;;1.52;1.38;;;20.30;31.00;;;;;;5115265;28;20467;-80
2022/03/10 01:54:47;;;;;;;2.05;1.73;;;20.30;31.00;;;;;;5095523;28;20554;-80
2022/03/10 01:57:14;;;;;;;1.77;1.50;;;20.30;31.00;;;;;;5115214;28;20053;-80
2022/03/10 01:59:40;;;;;;;1.75;1.60;;;20.30;31.00;;;;;;5079626;28;20069;-80
2022/03/10 02:02:07;;;;;;;1.83;1.33;;;20.30;31.00;;;;;;5095927;28;20394;-80
2022/03/10 02:04:32;;;;;;;2.30;1.70;;;20.30;31.00;;;;;;5114841;28;20079;-80
2022/03/10 02:07:01;;;;;;;3.10;1.67;;;20.30;31.00;;;;;;5096656;28;20078;-80
2022/03/10 02:12:11;;;;;;;1.50;1.40;;;20.30;31.00;;;;;;5095992;28;20076;-80
2022/03/10 02:17:22;;;;;;;2.00;1.80;;;20.30;31.00;;;;;;5114820;28;20055;-80
2022/03/10 02:19:51;;;;;;;2.15;1.80;;;20.40;31.00;;;;;;5114778;28;20048;-80
2022/03/10 02:22:20;;;;;;;2.15;1.67;;;20.40;31.00;;;;;;5096453;28;20190;-80
2022/03/10 02:24:46;;;;;;;1.98;1.60;;;20.30;31.00;;;;;;5114551;28;20058;-80
2022/03/10 02:27:22;;;;;;;1.90;1.70;;;20.40;31.60;;;;;;5114479;28;20047;-80
2022/03/10 02:29:52;;;;;;;2.63;1.85;;;20.30;31.00;;;;;;5115043;28;20043;-80
2022/03/10 02:32:19;;;;;;;3.20;1.58;;;20.30;31.00;;;;;;5114649;28;20406;-80
2022/03/10 02:34:45;;;;;;;2.40;1.55;;;20.30;31.00;;;;;;5114501;28;20502;-80
2022/03/10 02:37:11;;;;;;;2.67;2.13;;;20.30;31.00;;;;;;5114151;28;20048;-80
2022/03/10 02:39:38;;;;;;;2.15;1.52;;;20.30;31.00;;;;;;5113259;28;20051;-80
2022/03/10 02:42:04;;;;;;;1.70;1.60;;;20.30;31.00;;;;;;5114584;28;20101;-80
2022/03/10 02:44:30;;;;;;;1.92;1.42;;;20.30;31.50;;;;;;5114283;28;20123;-81
2022/03/10 02:46:56;;;;;;;1.88;1.60;;;20.30;30.90;;;;;;5114098;28;20146;-80
2022/03/10 02:49:22;;;;;;;2.10;1.73;;;20.30;30.90;;;;;;5113897;28;20138;-80
2022/03/10 02:51:48;;;;;;;1.70;1.45;;;20.30;31.00;;;;;;5094630;28;20056;-80
2022/03/10 02:54:14;;;;;;;1.80;1.65;;;20.30;30.90;;;;;;5114113;28;20059;-80
2022/03/10 02:56:40;;;;;;;2.35;1.88;;;20.30;30.90;;;;;;5114188;28;20458;-80
2022/03/10 02:59:05;;;;;;;1.83;1.63;;;20.30;30.90;;;;;;5114142;28;20134;-80
2022/03/10 03:01:31;;;;;;;2.10;1.90;;;20.40;31.00;;;;;;5114501;28;20425;-80
2022/03/10 03:03:57;;;;;;;2.72;2.03;;;20.40;31.00;;;;;;5113961;28;20410;-80
2022/03/10 03:06:23;;;;;;;1.98;1.70;;;20.30;30.90;;;;;;5078815;28;20051;-80
2022/03/10 03:08:48;;;;;;;2.97;1.58;;;20.40;30.90;;;;;;5094054;28;20052;-80
2022/03/10 03:11:14;;;;;;;2.33;1.80;;;20.30;30.90;;;;;;5114362;28;20059;-80
2022/03/10 03:13:40;;;;;;;2.20;1.90;;;20.40;30.90;;;;;;5113954;28;20051;-80
2022/03/10 03:16:06;;;;;;;2.50;1.65;;;20.40;30.90;;;;;;5113936;28;20100;-80
2022/03/10 03:18:31;;;;;;;2.30;1.80;;;20.40;30.80;;;;;;5114469;28;20079;-80
2022/03/10 03:20:57;;;;;;;2.15;1.73;;;20.40;30.80;;;;;;5113997;28;20062;-80
2022/03/10 03:23:26;;;;;;;2.22;1.55;;;20.40;30.80;;;;;;5113799;28;20083;-80
2022/03/10 03:25:52;;;;;;;2.25;1.60;;;20.40;30.80;;;;;;5113672;28;20142;-80
2022/03/10 03:28:22;;;;;;;1.83;1.63;;;20.50;30.80;;;;;;5078265;28;20047;-80
2022/03/10 03:30:48;;;;;;;2.70;1.80;;;20.50;30.80;;;;;;5113604;28;20050;-80
2022/03/10 03:33:14;;;;;;;1.85;1.63;;;20.50;30.80;;;;;;5095270;28;20063;-80
2022/03/10 03:35:41;;;;;;;1.65;1.55;;;20.50;30.70;;;;;;5113598;28;20055;-80
2022/03/10 03:38:07;;;;;;;1.80;1.70;;;20.50;30.70;;;;;;5113571;28;20055;-80
2022/03/10 03:40:32;;;;;;;2.63;1.75;;;20.60;30.70;;;;;;5113525;28;20419;-80
2022/03/10 03:42:58;;;;;;;1.95;1.60;;;20.60;30.70;;;;;;5113446;28;20395;-80
2022/03/10 03:45:23;;;;;;;1.65;1.55;;;20.60;30.70;;;;;;5113438;28;20055;-80
2022/03/10 03:47:49;;;;;;;2.45;1.60;;;20.60;30.60;;;;;;5095094;28;20103;-80
2022/03/10 03:50:14;;;;;;;2.97;1.55;;;20.60;30.60;;;;;;5112939;28;20108;-80
2022/03/10 03:52:40;;;;;;;1.90;1.70;;;20.70;30.70;;;;;;5113350;28;20073;-80
2022/03/10 03:55:07;;;;;;;1.88;1.65;;;20.70;30.60;;;;;;5113297;28;20050;-80
2022/03/10 03:57:32;;;;;;;2.70;1.75;;;20.70;30.60;;;;;;5113221;28;20055;-80
2022/03/10 03:59:58;;;;;;;2.33;2.00;;;20.70;30.60;;;;;;5113161;28;20055;-80
2022/03/10 04:02:24;;;;;;;1.88;1.73;;;20.70;30.60;;;;;;5113548;28;20059;-80
2022/03/10 04:04:50;;;;;;;2.47;2.05;;;20.70;30.60;;;;;;5113079;28;20097;-80
2022/03/10 04:07:17;;;;;;;1.60;1.50;;;20.70;30.60;;;;;;5113133;28;20103;-80
2022/03/10 04:09:43;;;;;;;3.00;1.88;;;20.70;30.60;;;;;;5113349;28;20096;-80
2022/03/10 04:12:08;;;;;;;1.63;1.52;;;20.70;30.60;;;;;;5112961;28;20436;-80
2022/03/10 04:14:34;;;;;;;1.92;1.75;;;20.80;30.60;;;;;;5112950;28;20518;-80
2022/03/10 04:17:00;;;;;;;1.75;1.65;;;20.70;30.60;;;;;;5093209;28;20082;-80
2022/03/10 04:19:25;;;;;;;1.88;1.67;;;20.70;30.50;;;;;;5095044;28;20051;-80
2022/03/10 04:21:51;;;;;;;1.90;1.70;;;20.70;30.50;;;;;;5112858;28;20407;-80
2022/03/10 04:24:16;;;;;;;1.85;1.70;;;20.70;30.50;;;;;;5112778;28;20092;-80
2022/03/10 04:26:42;;;;;;;2.08;1.88;;;20.80;30.60;;;;;;5112873;28;20052;-80
2022/03/10 04:29:08;;;;;;;2.88;1.92;;;20.70;30.50;;;;;;5112706;28;20052;-80
2022/03/10 04:31:33;;;;;;;1.90;1.70;;;20.70;30.50;;;;;;5113380;28;20079;-80
2022/03/10 04:33:59;;;;;;;2.47;1.90;;;20.70;30.60;;;;;;5112741;28;20128;-80
2022/03/10 04:36:24;;;;;;;2.40;1.60;;;20.70;30.60;;;;;;5112974;28;20391;-80
2022/03/10 04:38:50;;;;;;;2.58;1.98;;;20.70;30.60;;;;;;5113149;28;20396;-80
2022/03/10 04:41:16;;;;;;;2.30;1.80;;;20.70;30.60;;;;;;5112787;28;20052;-80
2022/03/10 04:43:42;;;;;;;1.83;1.58;;;20.70;30.60;;;;;;5112617;28;20433;-80
2022/03/10 04:46:08;;;;;;;2.03;1.65;;;20.70;30.60;;;;;;5111348;28;20402;-80
2022/03/10 04:48:34;;;;;;;2.25;1.77;;;20.70;30.60;;;;;;5112723;28;20047;-80
2022/03/10 04:50:59;;;;;;;1.92;1.75;;;20.70;30.60;;;;;;5112494;28;20047;-80
2022/03/10 04:53:25;;;;;;;2.30;1.70;;;20.70;30.60;;;;;;5112607;28;20055;-80
2022/03/10 04:55:50;;;;;;;1.98;1.60;;;20.70;30.60;;;;;;5112565;28;20055;-80
2022/03/10 04:58:16;;;;;;;1.58;1.48;;;20.70;30.60;;;;;;5112442;28;20084;-80
2022/03/10 05:00:42;;;;;;;2.03;1.80;;;20.70;30.60;;;;;;5112395;28;20059;-80
2022/03/10 05:03:07;;;;;;;2.03;1.60;;;20.60;30.60;;;;;;5095951;28;20044;-80
2022/03/10 05:05:33;;;;;;;1.92;1.73;;;20.70;30.60;;;;;;5115988;28;20101;-80
2022/03/10 05:07:58;;;;;;;2.00;1.80;;;20.70;30.60;;;;;;5097642;28;20063;-80
2022/03/10 05:10:24;;;;;;;1.77;1.50;;;20.60;30.60;;;;;;5115931;28;20059;-80
2022/03/10 05:13:00;;;;;;;2.00;1.77;;;20.70;30.60;;;;;;5116286;28;20055;-80
2022/03/10 05:15:28;;;;;;;1.80;1.67;;;20.60;30.50;;;;;;5115870;28;20044;-80
2022/03/10 05:17:54;;;;;;;2.15;1.70;;;20.60;30.50;;;;;;5115882;28;20487;-79
2022/03/10 05:20:20;;;;;;;1.83;1.67;;;20.60;30.50;;;;;;5115653;28;20108;-80
2022/03/10 05:22:47;;;;;;;1.90;1.63;;;20.60;30.50;;;;;;5115748;28;20060;-80
2022/03/10 05:25:15;;;;;;;2.10;1.77;;;20.60;30.50;;;;;;5115899;28;20082;-80
2022/03/10 05:27:42;;;;;;;2.03;1.80;;;20.60;30.50;;;;;;5115652;28;20134;-79
2022/03/10 05:30:08;;;;;;;1.35;1.25;;;20.70;30.60;;;;;;5115597;28;20491;-80
2022/03/10 05:32:34;;;;;;;2.47;1.55;;;20.70;30.60;;;;;;5114141;28;20059;-80
2022/03/10 05:35:03;;;;;;;1.90;1.70;;;20.70;30.60;;;;;;5115486;28;20134;-80
2022/03/10 05:37:30;;;;;;;2.08;1.65;;;20.60;30.60;;;;;;5115262;28;20054;-78
2022/03/10 05:39:56;;;;;;;2.58;1.60;;;20.70;30.60;;;;;;5078454;28;20079;-80
2022/03/10 05:42:22;;;;;;;2.17;1.73;;;20.70;30.60;;;;;;5114079;28;20047;-81
2022/03/10 05:44:48;;;;;;;1.80;1.50;;;20.60;30.50;;;;;;5115270;28;20047;-80
2022/03/10 05:47:14;;;;;;;1.92;1.63;;;20.60;30.50;;;;;;5097016;28;20055;-80
2022/03/10 05:49:40;;;;;;;1.70;1.50;;;20.60;30.50;;;;;;5115138;28;20418;-80
2022/03/10 05:52:06;;;;;;;2.47;1.77;;;20.60;30.50;;;;;;5115041;28;20047;-80
2022/03/10 05:54:32;;;;;;;2.10;1.67;;;20.70;30.60;;;;;;5115070;28;20062;-80
2022/03/10 05:56:58;;;;;;;2.00;1.73;;;20.70;30.60;;;;;;5114937;28;20423;-80
2022/03/10 05:59:23;;;;;;;1.92;1.52;;;20.70;30.50;;;;;;5114907;28;20052;-80
2022/03/10 06:01:49;;;;;;;2.45;1.63;;;20.70;30.50;;;;;;5114821;28;20055;-80
2022/03/10 06:04:15;;;;;;;2.00;1.80;;;20.70;30.50;;;;;;5079790;28;20050;-80
2022/03/10 06:06:43;;;;;;;2.33;1.50;;;20.70;30.50;;;;;;5114813;28;20055;-80
2022/03/10 06:09:09;;;;;;;2.15;1.95;;;20.80;30.50;;;;;;5115246;28;20052;-80
2022/03/10 06:11:35;;;;;;;2.05;1.83;;;20.80;30.40;;;;;;5096683;28;20525;-80
2022/03/10 06:14:00;;;;;;;2.78;2.05;;;20.90;30.30;;;;;;5096416;28;20051;-80
2022/03/10 06:16:26;;;;;;;1.92;1.65;;;20.90;30.20;;;;;;5114794;28;20044;-80
2022/03/10 06:18:52;;;;;;;1.88;1.67;;;21.00;30.20;;;;;;5114890;28;20039;-80
2022/03/10 06:21:18;;;;;;;2.00;1.63;;;21.10;30.10;;;;;;5114748;28;20060;-80
2022/03/10 06:23:44;;;;;;;2.70;2.15;;;21.10;30.00;;;;;;5114874;28;20054;-80
2022/03/10 06:26:09;;;;;;;1.60;1.35;;;21.20;30.00;;;;;;5114691;28;20051;-79
2022/03/10 06:28:35;;;;;;;1.80;1.70;;;21.30;30.00;;;;;;5114683;28;20047;-79
2022/03/10 06:31:00;;;;;;;1.80;1.42;;;21.30;30.00;;;;;;5113230;28;20097;-79
2022/03/10 06:33:26;;;;;;;2.15;1.95;;;21.30;30.00;;;;;;5114665;28;20046;-80
2022/03/10 06:35:52;;;;;;;1.80;1.45;;;21.40;29.90;;;;;;5114585;28;20142;-80
2022/03/10 06:38:18;;;;;;;3.17;1.83;;;21.50;29.90;;;;;;5114774;28;20123;-80
2022/03/10 06:40:43;;;;;;;2.20;1.77;;;21.50;29.90;;;;;;5114377;28;20075;-80
2022/03/10 06:43:09;;;;;;;1.67;1.30;;;21.50;29.80;;;;;;5114437;28;20051;-80
2022/03/10 06:45:34;;;;;;;3.17;1.67;;;21.60;29.80;;;;;;5096184;28;20051;-80
2022/03/10 06:48:00;;;;;;;2.20;1.85;;;21.70;29.70;;;;;;5114404;28;20056;-80
2022/03/10 06:50:27;;;;;;;2.50;1.98;;;21.70;29.70;;;;;;5114234;28;20073;-80
2022/03/10 06:52:56;;;;;;;3.33;1.70;;;21.80;29.70;;;;;;5114236;28;20051;-80
2022/03/10 06:55:22;;;;;;;3.00;1.70;;;21.80;29.70;;;;;;5114075;28;20040;-80
2022/03/10 06:57:48;;;;;;;3.38;2.08;;;21.80;29.60;;;;;;5114017;28;20514;-80
2022/03/10 07:00:14;;;;;;;1.83;1.70;;;21.90;30.00;;;;;;5114130;28;20051;-80
2022/03/10 07:02:39;;;;;;;2.30;1.60;;;21.90;29.50;;;;;;5114364;28;20054;-80
2022/03/10 07:05:07;;;;;;;2.47;1.73;;;21.90;29.50;;;;;;5112576;28;20054;-80
2022/03/10 07:07:32;;;;;;;4.43;1.90;;;21.90;29.40;;;;;;5113654;28;20142;-80
2022/03/10 07:09:58;;;;;;;2.10;1.63;;;22.00;29.40;;;;;;5114254;28;20147;-80
2022/03/10 07:12:27;;;;;;;2.70;1.95;;;22.00;29.40;;;;;;5113844;28;20142;-80
2022/03/10 07:14:53;;;;;;;2.67;2.00;;;22.00;29.40;;;;;;5112393;28;20048;-80
2022/03/10 07:17:20;;;;;;;3.95;2.10;;;22.10;29.30;;;;;;5095476;28;20075;-79
2022/03/10 07:19:51;;;;;;;3.00;1.90;;;22.10;29.30;;;;;;5113762;28;20071;-80
2022/03/10 07:22:18;;;;;;;2.15;1.95;;;22.10;29.30;;;;;;5114099;28;20089;-80
2022/03/10 07:24:45;;;;;;;2.85;1.92;;;22.10;29.30;;;;;;5112936;28;20048;-80
2022/03/10 07:27:11;;;;;;;2.67;2.05;;;22.20;29.30;;;;;;5113480;28;20056;-80
2022/03/10 07:29:37;;;;;;;3.55;2.08;;;22.20;29.20;;;;;;5113269;28;20082;-80
2022/03/10 07:32:03;;;;;;;3.20;2.10;;;22.30;29.20;;;;;;5111100;28;20048;-80
2022/03/10 07:34:29;;;;;;;5.05;2.05;;;22.20;29.20;;;;;;5095092;28;20083;-80
2022/03/10 07:36:54;;;;;;;4.50;1.90;;;22.20;29.20;;;;;;5113310;28;20399;-80
2022/03/10 07:39:20;;;;;;;2.90;2.17;;;22.20;29.20;;;;;;5113451;28;20054;-80
2022/03/10 07:41:45;;;;;;;4.07;2.05;;;22.00;29.30;;;;;;5113759;28;20075;-80
2022/03/10 07:44:11;;;;;;;5.05;2.53;;;22.00;29.50;;;;;;5113300;28;20047;-80
2022/03/10 07:46:37;;;;;;;5.75;2.60;;;21.90;29.70;;;;;;5113313;28;20410;-79
2022/03/10 07:49:03;;;;;;;3.33;2.15;;;21.90;30.10;;;;;;5113272;28;20047;-80
2022/03/10 07:51:29;;;;;;;5.68;2.10;;;21.90;30.60;;;;;;5113248;28;20048;-80
2022/03/10 07:53:55;;;;;;;5.13;1.90;;;21.90;30.80;;;;;;5113310;28;20043;-80
2022/03/10 07:56:20;;;;;;;5.90;2.83;;;21.90;31.50;;;;;;5113234;28;20130;-79
2022/03/10 07:58:46;;;;;;;3.65;2.30;;;21.90;31.20;;;;;;5113003;28;20047;-80
2022/03/10 08:01:12;;;;;;;6.53;2.30;;;21.90;31.30;;;;;;5113180;28;20410;-79
2022/03/10 08:03:38;;;;;;;3.97;2.08;;;22.00;31.50;;;;;;5113102;28;20071;-80
2022/03/10 08:06:04;;;;;;;5.95;2.22;;;22.00;31.60;;;;;;5113111;28;20563;-79
2022/03/10 08:08:30;;;;;;;5.20;2.20;;;21.90;31.70;;;;;;5094836;28;20055;-79
2022/03/10 08:10:56;;;;;;;6.45;2.53;;;21.90;31.90;;;;;;5113357;28;20047;-79
2022/03/10 08:13:26;;;;;;;6.90;2.40;;;21.90;31.90;;;;;;5111767;28;20055;-80
2022/03/10 08:15:52;;;;;;;4.30;2.10;;;21.90;32.10;;;;;;5094598;28;20050;-80
2022/03/10 08:18:18;;;;;;;3.33;2.22;;;21.80;32.20;;;;;;5112881;28;20083;-79
2022/03/10 08:20:43;;;;;;;5.45;2.72;;;21.70;32.20;;;;;;5112864;28;20086;-79
2022/03/10 08:23:09;;;;;;;7.30;2.30;;;21.70;32.30;;;;;;5111569;28;20459;-79
2022/03/10 08:25:38;;;;;;;3.72;2.20;;;21.70;32.40;;;;;;5112830;28;20051;-80
2022/03/10 08:28:05;;;;;;;4.88;2.30;;;21.70;32.40;;;;;;5112818;28;20056;-79
2022/03/10 08:30:31;;;;;;;6.95;2.45;;;21.70;32.40;;;;;;5112708;28;20146;-79
2022/03/10 08:32:57;;;;;;;7.65;2.35;;;21.70;32.40;;;;;;5113124;28;20480;-79
2022/03/10 08:35:23;;;;;;;4.55;2.42;;;21.70;32.40;;;;;;5113647;28;20142;-79
2022/03/10 08:37:49;;;;;;;3.83;2.17;;;21.70;32.50;;;;;;5116628;28;20130;-80
2022/03/10 08:40:18;;;;;;;3.78;1.80;;;21.60;32.50;;;;;;5116080;28;20051;-80
2022/03/10 08:42:44;;;;;;;4.80;2.25;;;21.60;32.50;;;;;;5097645;28;20445;-79
2022/03/10 08:45:10;;;;;;;5.13;2.25;;;21.60;32.50;;;;;;5097682;28;20409;-79
2022/03/10 08:47:36;;;;;;;6.22;2.22;;;21.60;32.50;;;;;;5097666;28;20051;-79
2022/03/10 08:50:03;;;;;;;4.30;2.30;;;21.60;32.50;;;;;;5116149;28;20387;-80
2022/03/10 08:52:29;;;;;;;5.28;2.20;;;21.50;32.60;;;;;;5115923;28;20039;-80
2022/03/10 08:54:55;;;;;;;6.18;2.55;;;21.50;32.70;;;;;;5116009;28;20071;-79
2022/03/10 08:57:21;;;;;;;6.10;2.38;;;21.50;32.70;;;;;;5097740;28;20109;-79
2022/03/10 08:59:47;;;;;;;8.68;2.67;;;21.50;32.70;;;;;;5096369;28;20048;-79
2022/03/10 09:02:13;;;;;;;4.97;2.30;;;21.40;32.70;;;;;;5116138;28;20130;-80
2022/03/10 09:04:39;;;;;;;5.00;2.33;;;21.40;32.70;;;;;;5115472;28;20082;-80
2022/03/10 09:07:05;;;;;;;4.93;2.33;;;21.40;32.70;;;;;;5115464;28;20083;-79
2022/03/10 09:09:31;;;;;;;3.58;1.95;;;21.40;32.70;;;;;;5112962;28;20105;-80
2022/03/10 09:11:57;;;;;;;4.05;2.10;;;21.30;32.70;;;;;;5115648;28;20453;-79
2022/03/10 09:14:23;;;;;;;3.40;2.28;;;21.30;32.70;;;;;;5113474;28;20048;-80
2022/03/10 09:16:51;;;;;;;6.13;2.42;;;21.30;32.70;;;;;;5115599;28;20055;-80
2022/03/10 09:19:17;;;;;;;7.28;2.10;;;21.30;32.70;;;;;;5115655;28;20051;-80
2022/03/10 09:21:42;;;;;;;5.45;1.90;;;21.30;32.70;;;;;;5115646;28;20060;-79
2022/03/10 09:24:08;;;;;;;5.28;2.47;;;21.30;32.80;;;;;;5114102;28;20052;-79
2022/03/10 09:26:35;;;;;;;3.67;1.88;;;21.20;32.70;;;;;;5115704;28;20052;-80
2022/03/10 09:29:01;;;;;;;2.95;1.83;;;21.30;32.80;;;;;;5115553;28;20051;-80
2022/03/10 09:31:27;;;;;;;4.28;1.98;;;21.20;32.70;;;;;;5113535;28;20105;-79
2022/03/10 09:33:53;;;;;;;3.83;2.40;;;21.20;32.70;;;;;;5115470;28;20138;-80
2022/03/10 09:36:19;;;;;;;3.38;1.95;;;21.20;32.70;;;;;;5115527;28;20143;-80
2022/03/10 09:38:45;;;;;;;5.03;2.10;;;21.20;32.60;;;;;;5114022;28;20058;-80
2022/03/10 09:41:12;;;;;;;5.82;2.28;;;21.20;32.70;;;;;;5097149;28;20043;-80
2022/03/10 09:43:39;;;;;;;2.42;1.67;;;21.20;32.60;;;;;;5095468;28;20065;-80
2022/03/10 09:46:05;;;;;;;4.45;2.22;;;21.20;32.60;;;;;;5115271;28;20135;-79
2022/03/10 09:48:32;;;;;;;3.75;2.10;;;21.20;32.60;;;;;;5114477;28;20058;-79
2022/03/10 09:50:58;;;;;;;5.00;2.28;;;21.20;32.60;;;;;;5115193;28;20059;-79
2022/03/10 09:53:24;;;;;;;3.30;2.22;;;21.20;32.50;;;;;;5097182;28;20396;-80
2022/03/10 09:55:49;;;;;;;4.05;1.92;;;21.20;32.50;;;;;;5115033;28;20122;-79
2022/03/10 09:58:15;;;;;;;3.92;2.05;;;21.20;32.50;;;;;;5115665;28;20059;-80
2022/03/10 10:00:41;;;;;;;5.28;2.20;;;21.20;32.40;;;;;;5114977;28;20147;-80
2022/03/10 10:03:06;;;;;;;3.55;2.13;;;21.20;32.40;;;;;;5115086;28;20082;-80
2022/03/10 10:05:37;;;;;;;3.83;2.55;;;21.20;32.40;;;;;;5113622;28;20134;-80
2022/03/10 10:08:14;;;;;;;5.17;1.83;;;21.20;32.40;;;;;;5115051;28;20040;-80
2022/03/10 10:10:49;;;;;;;3.85;2.05;;;21.20;32.30;;;;;;5114986;28;20154;-80
2022/03/10 10:13:29;;;;;;;5.47;1.92;;;21.20;32.30;;;;;;5114809;28;20538;-80
2022/03/10 10:16:09;;;;;;;4.10;2.17;;;21.20;32.20;;;;;;5114702;28;20503;-79
2022/03/10 10:18:36;;;;;;;4.65;2.20;;;21.20;32.20;;;;;;5096254;28;20055;-80
2022/03/10 10:21:04;;;;;;;5.95;2.42;;;21.20;32.20;;;;;;5114799;28;20445;-80
2022/03/10 10:23:31;;;;;;;6.00;2.15;;;21.20;32.20;;;;;;5114602;28;20147;-80
2022/03/10 10:26:01;;;;;;;3.15;1.88;;;21.20;32.20;;;;;;5114743;28;20044;-80
2022/03/10 10:28:35;;;;;;;6.20;2.72;;;21.30;32.20;;;;;;5114511;28;20051;-80
2022/03/10 10:31:13;;;;;;;4.25;2.13;;;21.30;32.20;;;;;;5114578;28;20126;-80
2022/03/10 10:33:41;;;;;;;5.53;1.90;;;21.30;32.20;;;;;;5114678;28;20104;-80
2022/03/10 10:36:34;;;;;;;2.95;2.03;;;21.20;32.10;;;;;;5096255;28;20055;-80
2022/03/10 10:39:16;;;;;;;3.42;2.30;;;21.20;32.10;;;;;;5110040;28;20051;-80
2022/03/10 10:41:45;;;;;;;3.03;2.05;;;21.20;32.00;;;;;;5114383;28;20058;-80
2022/03/10 10:44:16;;;;;;;4.00;1.92;;;21.20;32.00;;;;;;5114300;28;20124;-80
2022/03/10 10:46:46;;;;;;;5.07;2.15;;;21.20;32.00;;;;;;5114544;28;20169;-80
2022/03/10 10:49:17;;;;;;;5.70;2.50;;;21.20;32.00;;;;;;5095941;28;20074;-80
2022/03/10 10:51:50;;;;;;;3.95;2.42;;;21.30;32.10;;;;;;5114361;28;20052;-80
2022/03/10 10:54:24;;;;;;;4.32;2.33;;;21.20;31.90;;;;;;5114246;28;20040;-80
2022/03/10 10:57:05;;;;;;;3.60;1.92;;;21.30;32.00;;;;;;5114093;28;20054;-80
2022/03/10 10:59:34;;;;;;;3.63;2.03;;;21.30;31.90;;;;;;5092873;28;20055;-80
2022/03/10 11:02:07;;;;;;;5.85;2.72;;;21.30;31.90;;;;;;5113874;28;20491;-80
2022/03/10 11:04:33;;;;;;;3.03;1.88;;;21.30;31.90;;;;;;5113832;28;20484;-80
2022/03/10 11:06:59;;;;;;;3.50;2.22;;;21.30;31.90;;;;;;5113732;28;20055;-79
2022/03/10 11:09:25;;;;;;;3.95;1.95;;;21.30;31.80;;;;;;5077632;28;20044;-79
2022/03/10 11:11:52;;;;;;;4.38;2.38;;;21.30;31.80;;;;;;5113878;28;20052;-79
2022/03/10 11:14:18;;;;;;;3.78;2.20;;;21.30;31.80;;;;;;5113797;28;20039;-79
2022/03/10 11:16:45;;;;;;;2.05;1.85;;;21.30;31.70;;;;;;5095512;28;20063;-79
2022/03/10 11:19:13;;;;;;;3.58;2.10;;;21.30;31.80;;;;;;5113117;28;20567;-79
2022/03/10 11:22:14;;;;;;;3.15;1.90;;;21.30;31.70;;;;;;5193403;27;20167;-79
2022/03/10 11:24:54;;;;;;;3.40;1.90;;;21.30;31.70;;;;;;5171558;27;20050;-79
2022/03/10 11:27:29;;;;;;;3.22;2.05;;;21.30;31.60;;;;;;5171650;27;20074;-79
2022/03/10 11:29:57;;;;;;;4.15;2.10;;;21.30;31.60;;;;;;5171647;27;20038;-79
2022/03/10 11:32:30;;;;;;;2.92;2.08;;;21.30;31.60;;;;;;5171758;27;20049;-79
2022/03/10 11:34:58;;;;;;;5.53;2.30;;;21.30;31.60;;;;;;5152314;27;20489;-79
2022/03/10 11:37:36;;;;;;;4.28;1.92;;;21.30;31.60;;;;;;5152476;27;20058;-79
2022/03/10 11:40:10;;;;;;;4.97;1.67;;;21.30;31.50;;;;;;5171440;27;20553;-79
2022/03/10 11:42:37;;;;;;;3.00;2.10;;;21.30;31.50;;;;;;5171397;27;20474;-79
2022/03/10 11:45:20;;;;;;;3.97;2.17;;;21.30;31.50;;;;;;5171335;27;20046;-80
2022/03/10 11:47:47;;;;;;;5.65;2.20;;;21.30;31.40;;;;;;5152649;27;20046;-80
2022/03/10 11:50:22;;;;;;;3.28;2.20;;;21.30;31.40;;;;;;5171306;27;20497;-79
2022/03/10 11:53:02;;;;;;;3.75;2.00;;;21.30;31.40;;;;;;5171409;27;20145;-79
2022/03/10 11:55:46;;;;;;;3.03;2.20;;;21.30;31.40;;;;;;5171045;27;20129;-80
2022/03/10 11:58:13;;;;;;;4.35;2.13;;;21.40;31.40;;;;;;5171005;27;20123;-80
2022/03/10 12:00:44;;;;;;;5.40;2.30;;;21.30;31.40;;;;;;5171351;27;20042;-79
2022/03/10 12:03:10;;;;;;;;;;;21.30;31.90;;;;;;5171660;27;20107;-79
2022/03/10 12:06:02;;;;;;;3.53;2.03;;;21.30;31.30;;;;;;5150287;27;19915;-79
2022/03/10 12:08:30;;;;;;;3.33;1.83;;;21.40;31.30;;;;;;5159055;27;20052;-79
2022/03/10 12:10:57;;;;;;;3.00;2.22;;;21.40;31.90;;;;;;5152298;27;20050;-79
2022/03/10 12:13:31;;;;;;;3.28;2.17;;;21.40;31.30;;;;;;5171031;27;20486;-80
2022/03/10 12:15:58;;;;;;;4.55;2.15;;;21.40;31.30;;;;;;5170999;27;20079;-79
2022/03/10 12:18:28;;;;;;;2.78;2.03;;;21.40;31.30;;;;;;5171244;27;20058;-80
2022/03/10 12:20:55;;;;;;;3.45;1.77;;;21.40;31.20;;;;;;5152111;27;20095;-80
2022/03/10 12:23:26;;;;;;;2.60;2.22;;;21.40;31.20;;;;;;5152106;27;20134;-80
2022/03/10 12:26:05;;;;;;;2.88;1.95;;;21.40;31.20;;;;;;5170855;27;20050;-79
2022/03/10 12:28:37;;;;;;;5.53;2.22;;;21.40;31.20;;;;;;5170861;27;20474;-80
2022/03/10 12:31:12;;;;;;;3.10;1.90;;;21.40;31.10;;;;;;5133014;27;20157;-80
2022/03/10 12:33:56;;;;;;;3.13;2.08;;;21.40;31.10;;;;;;5136312;27;20058;-79
2022/03/10 12:36:41;;;;;;;2.55;1.98;;;21.40;31.10;;;;;;5138364;27;20046;-79
2022/03/10 12:39:14;;;;;;;3.30;2.20;;;21.40;31.00;;;;;;5156849;27;20092;-80
2022/03/10 12:41:47;;;;;;;3.38;2.10;;;21.40;31.00;;;;;;5121084;27;20051;-79
2022/03/10 12:44:13;;;;;;;3.08;2.10;;;21.40;31.00;;;;;;5156677;27;20466;-79
2022/03/10 12:46:41;;;;;;;4.72;2.13;;;21.40;31.00;;;;;;5156494;27;20050;-80
2022/03/10 12:49:26;;;;;;;3.42;2.15;;;21.40;31.00;;;;;;5156214;27;20482;-80
2022/03/10 12:51:56;;;;;;;2.78;2.10;;;21.40;31.00;;;;;;5120030;27;20393;-80
2022/03/10 12:54:22;;;;;;;2.70;2.20;;;21.40;31.00;;;;;;5156313;27;20107;-80